Terminal Aerodrome Forecast
Issued by NWS

Home | Current Version | Previous Version | Text Only | Print | Product List | Glossary On
Versions: 1 2 3 4 5 6 7 8 9 10 11 12 13 14 15 16 17 18 19
000
FTUS43 KDVN 151700
TAFCID
TAF
KCID 151726Z 1518/1618 35012KT P6SM VCSH FEW020 OVC030
      TEMPO 1518/1519 -SHRA BKN015 OVC025
     FM152000 36011KT P6SM BKN040
     FM152300 34003KT P6SM SKC
     FM161300 20004KT P6SM SKC=

USA.gov is the U.S. government's official web portal to all federal, state and local government web resources and services.